Time;durP1;ratioP1;P1;durP2;ratioP2;P2;SDS_P1;SDS_P2;PMS_P1;PMS_P2;Temp;Humidity;BMP_temperature;BMP_pressure;BME280_temperature;BME280_humidity;BME280_pressure;Samples;Min_cycle;Max_cycle;Signal;HPM_P1;HPM_P2
2021/12/22 00:00:11;;;;;;;17.10;9.03;;;;;;;-3.88;74.79;101416.73;1568519;87;22553;-82
2021/12/22 00:02:46;;;;;;;17.10;9.40;;;;;;;-3.90;74.72;101417.20;1462752;89;21905;-81
2021/12/22 00:05:08;;;;;;;17.30;8.68;;;;;;;-3.93;74.87;101420.69;1460055;89;21514;-81
2021/12/22 00:07:35;;;;;;;13.05;7.75;;;;;;;-4.00;75.19;101422.12;1461449;87;21463;-81
2021/12/22 00:10:03;;;;;;;12.10;7.47;;;;;;;-4.01;74.79;101433.37;1482272;87;21990;-81
2021/12/22 00:12:30;;;;;;;16.48;8.65;;;;;;;-4.03;74.79;101430.80;1488294;87;21366;-82
2021/12/22 00:14:58;;;;;;;17.00;9.83;;;;;;;-4.02;74.74;101435.55;1466095;87;22372;-82
2021/12/22 00:17:28;;;;;;;18.73;9.08;;;;;;;-4.00;74.57;101437.64;1440735;89;22396;-82
2021/12/22 00:19:56;;;;;;;19.45;10.05;;;;;;;-4.00;74.70;101432.47;1437896;90;21620;-82
2021/12/22 00:22:23;;;;;;;19.60;9.85;;;;;;;-4.00;74.59;101434.64;1464234;89;21556;-82
2021/12/22 00:24:50;;;;;;;23.57;9.93;;;;;;;-3.99;74.60;101438.08;1460792;89;21545;-81
2021/12/22 00:27:18;;;;;;;14.95;8.85;;;;;;;-4.05;74.98;101441.63;1457780;89;21437;-82
2021/12/22 00:29:48;;;;;;;20.12;9.33;;;;;;;-4.12;74.99;101442.17;1452964;87;23314;-82
2021/12/22 00:32:16;;;;;;;17.50;9.10;;;;;;;-4.22;74.91;101443.24;1465579;89;21656;-82
2021/12/22 00:34:52;;;;;;;15.40;8.50;;;;;;;-4.27;74.83;101445.05;1460182;88;22431;-82
2021/12/22 00:37:21;;;;;;;18.67;10.30;;;;;;;-4.31;75.13;101443.42;1453950;89;21626;-82
2021/12/22 00:39:50;;;;;;;17.07;9.10;;;;;;;-4.35;74.90;101445.62;1447206;90;21694;-82
2021/12/22 00:42:19;;;;;;;17.50;9.38;;;;;;;-4.38;74.81;101434.06;1441422;90;21498;-82
2021/12/22 00:44:51;;;;;;;21.65;10.68;;;;;;;-4.40;75.26;101442.27;1447119;90;22484;-82
2021/12/22 00:47:25;;;;;;;24.05;11.38;;;;;;;-4.42;75.36;101442.31;1440035;90;21510;-83
2021/12/22 00:49:54;;;;;;;23.47;12.65;;;;;;;-4.46;75.25;101437.22;1437728;89;21708;-82
2021/12/22 00:52:22;;;;;;;25.60;12.65;;;;;;;-4.48;76.13;101442.88;1425879;91;21470;-82
2021/12/22 00:54:50;;;;;;;27.45;13.85;;;;;;;-4.49;76.51;101442.00;1353230;91;21368;-82
2021/12/22 00:57:18;;;;;;;30.23;14.15;;;;;;;-4.49;77.51;101439.86;1385046;91;21323;-82
2021/12/22 00:59:47;;;;;;;28.57;14.98;;;;;;;-4.52;77.52;101446.38;1491372;91;21206;-83
2021/12/22 01:02:19;;;;;;;25.62;12.70;;;;;;;-4.54;77.52;101443.39;1352534;91;21285;-81
2021/12/22 01:04:46;;;;;;;29.15;13.83;;;;;;;-4.57;78.33;101444.73;1504580;91;21264;-83
2021/12/22 01:07:15;;;;;;;29.85;15.03;;;;;;;-4.59;78.57;101443.90;1445289;90;22190;-82
2021/12/22 01:09:42;;;;;;;32.78;16.50;;;;;;;-4.59;78.42;101445.19;1458653;91;21618;-81
2021/12/22 01:12:11;;;;;;;32.08;17.37;;;;;;;-4.57;77.96;101443.89;1420886;90;21574;-81
2021/12/22 01:14:39;;;;;;;20.43;11.33;;;;;;;-4.56;78.46;101440.41;1427945;91;21636;-81
2021/12/22 01:17:10;;;;;;;27.82;14.15;;;;;;;-4.56;77.71;101441.70;1443622;90;21449;-81
2021/12/22 01:22:28;;;;;;;29.13;13.13;;;;;;;-4.74;77.24;101447.20;1428136;90;21443;-82
2021/12/22 01:24:59;;;;;;;24.85;13.43;;;;;;;-4.82;77.79;101448.61;1450168;89;22903;-82
2021/12/22 01:27:24;;;;;;;22.60;12.33;;;;;;;-4.88;78.91;101443.55;1446734;90;21549;-82
2021/12/22 01:29:48;;;;;;;26.37;12.23;;;;;;;-4.89;78.08;101445.69;1443432;89;22545;-82
2021/12/22 01:32:17;;;;;;;21.85;11.33;;;;;;;-4.92;77.65;101447.03;1433683;90;21860;-82
2021/12/22 01:34:44;;;;;;;20.15;10.63;;;;;;;-4.95;77.72;101449.22;1438847;91;22522;-83
2021/12/22 01:37:11;;;;;;;21.65;11.35;;;;;;;-4.95;77.46;101444.50;1431098;90;21495;-83
2021/12/22 01:39:38;;;;;;;18.95;9.45;;;;;;;-4.97;77.75;101448.41;1417225;91;21524;-82
2021/12/22 01:42:06;;;;;;;21.62;10.88;;;;;;;-5.03;76.97;101449.36;1432264;90;21399;-82
2021/12/22 01:45:01;;;;;;;19.05;10.05;;;;;;;-5.12;77.38;101446.92;1432057;90;21413;-82
2021/12/22 01:50:05;;;;;;;21.20;10.35;;;;;;;-5.17;78.34;101450.01;1426612;90;21598;-81
2021/12/22 01:52:32;;;;;;;;;;;;;;;-5.25;78.27;101454.42;1439110;91;21450;-82
2021/12/22 01:55:07;;;;;;;18.35;10.35;;;;;;;-5.28;78.38;101453.18;1442221;90;20669;-82
2021/12/22 01:57:39;;;;;;;20.37;11.73;;;;;;;-5.29;77.86;101452.78;1433668;90;22434;-82
2021/12/22 02:00:08;;;;;;;20.80;11.40;;;;;;;-5.32;77.71;101450.20;1440478;91;21464;-82
2021/12/22 02:02:35;;;;;;;18.37;9.75;;;;;;;-5.33;77.38;101456.26;1439112;90;21375;-82
2021/12/22 02:05:04;;;;;;;19.80;10.30;;;;;;;-5.33;77.17;101452.39;1426284;91;21376;-82
2021/12/22 02:07:31;;;;;;;20.00;9.55;;;;;;;-5.34;76.92;101445.09;1434712;91;22419;-82
2021/12/22 02:12:36;;;;;;;18.52;10.25;;;;;;;-5.33;76.39;101448.07;1427860;91;21434;-81
2021/12/22 02:15:04;;;;;;;21.20;12.10;;;;;;;-5.33;76.09;101447.23;1431160;90;21625;-81
2021/12/22 02:17:31;;;;;;;24.85;11.43;;;;;;;-5.36;75.91;101446.83;1432305;91;22515;-81
2021/12/22 02:19:58;;;;;;;25.60;11.60;;;;;;;-5.38;76.01;101437.40;1438744;91;21411;-82
2021/12/22 02:22:27;;;;;;;21.85;11.15;;;;;;;-5.42;76.02;101442.20;1431563;90;21392;-82
2021/12/22 02:25:01;;;;;;;26.55;13.18;;;;;;;-5.37;76.27;101447.72;1432511;91;21406;-82
2021/12/22 02:27:34;;;;;;;20.80;11.53;;;;;;;-5.37;76.52;101449.45;1436678;91;21494;-82
2021/12/22 02:30:01;;;;;;;19.67;11.05;;;;;;;-5.43;76.19;101445.66;1442036;89;21510;-82
2021/12/22 02:35:14;;;;;;;22.17;11.68;;;;;;;-5.43;75.89;101459.86;1442480;90;21442;-82
2021/12/22 02:37:44;;;;;;;20.80;10.80;;;;;;;-5.52;76.56;101453.94;1437692;90;22447;-82
2021/12/22 02:40:17;;;;;;;25.50;10.55;;;;;;;-5.59;77.34;101454.88;1429663;90;21383;-82
2021/12/22 02:42:46;;;;;;;23.47;11.25;;;;;;;-5.59;76.91;101454.88;1441640;91;21487;-82
2021/12/22 02:45:17;;;;;;;28.73;12.55;;;;;;;-5.58;77.26;101450.16;1433707;91;22353;-82
2021/12/22 02:47:44;;;;;;;31.55;16.32;;;;;;;-5.65;77.99;101457.98;1436943;91;21642;-82
2021/12/22 02:50:15;;;;;;;23.87;13.18;;;;;;;-5.74;78.64;101465.40;1433759;91;22781;-82
2021/12/22 02:55:14;;;;;;;24.55;12.50;;;;;;;-5.75;77.81;101463.70;1434590;90;21472;-83
2021/12/22 02:57:46;;;;;;;23.65;12.18;;;;;;;-5.76;77.30;101467.13;1436593;90;21406;-83
2021/12/22 03:00:35;;;;;;;23.42;13.98;;;;;;;-5.82;77.69;101464.63;1436426;91;21517;-82
2021/12/22 03:03:03;;;;;;;35.68;14.93;;;;;;;-5.93;78.31;101468.21;1431051;91;21436;-82
2021/12/22 03:05:28;;;;;;;22.15;12.20;;;;;;;-6.04;78.65;101470.09;1438392;91;21472;-82
2021/12/22 03:07:56;;;;;;;19.85;10.40;;;;;;;-6.07;78.23;101476.56;1431230;90;21524;-82
2021/12/22 03:10:23;;;;;;;22.15;11.95;;;;;;;-6.11;77.56;101470.16;1441564;91;21539;-82
2021/12/22 03:12:53;;;;;;;20.75;9.65;;;;;;;-6.17;77.48;101465.48;1434919;90;21428;-82
2021/12/22 03:15:21;;;;;;;17.55;9.23;;;;;;;-6.26;77.55;101468.59;1434780;91;21420;-82
2021/12/22 03:17:50;;;;;;;19.45;10.43;;;;;;;-6.44;78.03;101477.36;1435241;91;21421;-82
2021/12/22 03:20:17;;;;;;;17.50;9.33;;;;;;;-6.64;76.81;101490.41;1436574;91;21393;-83
2021/12/22 03:22:46;;;;;;;18.77;10.55;;;;;;;-6.74;79.00;101483.18;1438985;91;22382;-81
2021/12/22 03:25:17;;;;;;;19.00;9.68;;;;;;;-6.75;78.63;101487.07;1439943;90;21541;-81
2021/12/22 03:27:49;;;;;;;21.82;10.75;;;;;;;-6.81;78.79;101483.67;1434278;91;21954;-81
2021/12/22 03:30:20;;;;;;;17.05;9.48;;;;;;;-6.82;79.38;101484.95;1436584;90;21494;-81
2021/12/22 03:32:48;;;;;;;19.35;10.72;;;;;;;-6.79;79.04;101477.64;1430302;91;22463;-82
2021/12/22 03:35:18;;;;;;;19.25;11.18;;;;;;;-6.74;78.66;101473.31;1429915;91;21568;-82
2021/12/22 03:37:52;;;;;;;14.90;8.25;;;;;;;-6.71;78.43;101476.72;1409928;91;21407;-82
2021/12/22 03:40:21;;;;;;;18.02;9.25;;;;;;;-6.67;78.19;101473.70;1431331;91;22425;-82
2021/12/22 03:42:49;;;;;;;21.73;11.63;;;;;;;-6.69;78.60;101481.43;1429561;91;21354;-82
2021/12/22 03:45:17;;;;;;;20.90;10.15;;;;;;;-6.70;78.65;101482.71;1437090;90;21377;-82
2021/12/22 03:47:45;;;;;;;21.12;9.65;;;;;;;-6.71;78.58;101484.87;1430412;91;21370;-82
2021/12/22 03:50:15;;;;;;;21.93;11.03;;;;;;;-6.67;78.45;101488.72;1431131;91;21406;-82
2021/12/22 03:52:42;;;;;;;22.27;10.78;;;;;;;-6.71;79.29;101495.17;1435503;91;21516;-81
2021/12/22 03:55:11;;;;;;;17.30;10.03;;;;;;;-6.76;79.41;101500.38;1435416;91;22484;-81
2021/12/22 03:57:39;;;;;;;21.55;10.60;;;;;;;-6.82;80.67;101505.55;1433281;91;22286;-81
2021/12/22 04:00:12;;;;;;;19.45;10.58;;;;;;;-6.85;81.48;101508.14;1434620;91;22334;-81
2021/12/22 04:02:39;;;;;;;22.50;11.30;;;;;;;-6.81;80.25;101507.28;1432529;91;22097;-81
2021/12/22 04:05:07;;;;;;;20.08;10.35;;;;;;;-6.76;79.85;101503.36;1432047;90;22404;-81
2021/12/22 04:07:34;;;;;;;18.17;10.20;;;;;;;-6.71;79.32;101506.77;1434697;91;21317;-81
2021/12/22 04:10:18;;;;;;;22.05;11.28;;;;;;;-6.65;78.99;101511.42;1432034;90;21362;-82
2021/12/22 04:12:33;;;;;;;26.37;14.33;;;;;;;-6.59;78.53;101514.38;1432725;90;21634;-82
2021/12/22 04:15:00;;;;;;;26.25;13.05;;;;;;;-6.54;78.25;101501.05;1438979;90;21612;-82
2021/12/22 04:17:27;;;;;;;24.57;14.90;;;;;;;-6.48;78.40;101511.28;1424246;91;21517;-82
2021/12/22 04:19:54;;;;;;;26.70;14.38;;;;;;;-6.42;78.65;101517.67;1436065;90;21494;-82
2021/12/22 04:22:22;;;;;;;23.30;11.88;;;;;;;-6.37;78.50;101524.94;1435999;91;21993;-82
2021/12/22 04:24:49;;;;;;;28.85;14.47;;;;;;;-6.26;78.98;101524.00;1434535;90;21501;-82
2021/12/22 04:27:16;;;;;;;24.92;14.07;;;;;;;-6.23;78.96;101530.41;1436081;90;21547;-82
2021/12/22 04:29:43;;;;;;;20.95;12.28;;;;;;;-6.27;78.66;101535.15;1433284;91;21657;-82
2021/12/22 04:32:10;;;;;;;22.60;11.60;;;;;;;-6.31;78.49;101541.21;1433162;89;21656;-82
2021/12/22 04:34:37;;;;;;;28.12;13.55;;;;;;;-6.31;78.48;101545.92;1439040;90;21421;-82
2021/12/22 04:37:04;;;;;;;26.93;13.60;;;;;;;-6.29;79.23;101548.50;1421439;90;22536;-82
2021/12/22 04:39:33;;;;;;;28.10;14.93;;;;;;;-6.26;78.94;101548.47;1431574;90;21634;-82
2021/12/22 04:42:01;;;;;;;25.15;12.30;;;;;;;-6.16;78.79;101547.09;1439389;90;21583;-82
2021/12/22 04:44:28;;;;;;;22.42;10.30;;;;;;;-6.05;78.43;101549.98;1435503;90;21621;-81
2021/12/22 04:46:55;;;;;;;26.25;11.53;;;;;;;-5.96;78.07;101552.03;1441182;90;21568;-82
2021/12/22 04:49:22;;;;;;;26.97;13.65;;;;;;;-5.90;77.93;101547.22;1439688;90;21427;-81
2021/12/22 04:51:51;;;;;;;22.82;11.65;;;;;;;-5.86;77.67;101554.51;1436762;90;22610;-80
2021/12/22 04:54:31;;;;;;;24.25;13.25;;;;;;;-5.83;77.29;101559.19;1442394;90;21600;-81
2021/12/22 04:56:47;;;;;;;25.52;13.48;;;;;;;-5.83;77.14;101557.05;1442881;90;22380;-81
2021/12/22 04:59:14;;;;;;;22.40;12.45;;;;;;;-5.79;76.91;101561.30;1440852;90;21584;-81
2021/12/22 05:01:41;;;;;;;29.07;16.73;;;;;;;-5.75;76.82;101562.55;1434931;90;21568;-81
2021/12/22 05:04:08;;;;;;;31.27;16.12;;;;;;;-5.70;76.81;101568.92;1442742;90;21421;-82
2021/12/22 05:06:35;;;;;;;39.10;17.20;;;;;;;-5.67;76.93;101567.60;1438681;90;21442;-83
2021/12/22 05:09:07;;;;;;;28.17;16.27;;;;;;;-5.63;77.35;101565.42;1438588;90;21526;-82
2021/12/22 05:11:35;;;;;;;29.25;16.65;;;;;;;-5.59;77.25;101570.11;1433526;90;22549;-82
2021/12/22 05:14:04;;;;;;;28.45;15.30;;;;;;;-5.52;77.42;101568.73;1441700;90;21420;-83
2021/12/22 05:16:31;;;;;;;30.08;16.17;;;;;;;-5.45;77.25;101572.94;1440379;90;21420;-83
2021/12/22 05:19:10;;;;;;;23.27;13.70;;;;;;;-5.41;77.49;101572.91;1432825;90;21428;-82
2021/12/22 05:21:27;;;;;;;28.73;15.70;;;;;;;-5.34;77.31;101574.55;1442367;90;21626;-82
2021/12/22 05:23:55;;;;;;;28.65;15.80;;;;;;;-5.30;77.29;101573.19;1446717;90;21443;-81
2021/12/22 05:26:25;;;;;;;28.05;16.25;;;;;;;-5.27;77.21;101577.46;1438233;88;21502;-81
2021/12/22 05:28:54;;;;;;;30.65;15.65;;;;;;;-5.24;77.21;101581.30;1442259;90;21450;-81
2021/12/22 05:31:23;;;;;;;42.30;16.87;;;;;;;-5.20;77.12;101578.27;1443750;89;21649;-81
2021/12/22 05:33:51;;;;;;;32.17;17.02;;;;;;;-5.18;76.90;101568.30;1437573;90;21413;-81
2021/12/22 05:36:18;;;;;;;29.95;16.45;;;;;;;-5.18;76.93;101564.44;1438638;88;21554;-81
2021/12/22 05:38:46;;;;;;;37.50;17.45;;;;;;;-5.16;76.86;101575.60;1434475;90;23488;-81
2021/12/22 05:41:13;;;;;;;32.50;16.90;;;;;;;-5.16;76.93;101563.98;1437725;90;22425;-81
2021/12/22 05:43:40;;;;;;;34.43;17.17;;;;;;;-5.13;77.09;101566.97;1440924;90;21494;-81
2021/12/22 05:46:07;;;;;;;36.45;19.80;;;;;;;-5.09;76.93;101561.76;1442288;90;21398;-81
2021/12/22 05:48:35;;;;;;;43.55;21.48;;;;;;;-5.05;76.96;101563.41;1441495;90;22584;-82
2021/12/22 05:51:02;;;;;;;35.30;20.20;;;;;;;-5.02;76.65;101565.09;1444964;90;21523;-81
2021/12/22 05:53:30;;;;;;;36.38;19.67;;;;;;;-5.02;77.07;101570.27;1436633;90;21608;-81
2021/12/22 05:55:58;;;;;;;37.53;19.20;;;;;;;-5.07;76.40;101579.79;1440937;90;21598;-81
2021/12/22 05:58:27;;;;;;;41.40;20.95;;;;;;;-5.33;77.36;101582.70;1438189;90;21405;-82
2021/12/22 06:00:54;;;;;;;38.13;21.62;;;;;;;-5.38;77.41;101577.62;1441681;90;21427;-83
2021/12/22 06:03:21;;;;;;;42.55;20.88;;;;;;;-5.36;77.90;101586.61;1445360;90;21495;-83
2021/12/22 06:05:49;;;;;;;41.18;20.43;;;;;;;-5.40;78.14;101586.24;1449996;90;21406;-83
2021/12/22 06:08:16;;;;;;;32.48;18.32;;;;;;;-5.45;77.79;101587.13;1439414;90;22365;-82
2021/12/22 06:10:43;;;;;;;31.73;17.45;;;;;;;-5.35;77.93;101592.18;1440032;90;22307;-82
2021/12/22 06:13:11;;;;;;;35.03;17.60;;;;;;;-5.29;77.91;101593.42;1434330;90;22545;-81
2021/12/22 06:15:40;;;;;;;30.23;15.63;;;;;;;-5.32;78.17;101594.72;1443121;90;21421;-82
2021/12/22 06:18:08;;;;;;;35.08;17.90;;;;;;;-5.32;78.11;101600.77;1421120;90;21436;-81
2021/12/22 06:20:35;;;;;;;27.35;15.43;;;;;;;-5.32;78.19;101607.63;1407973;90;21376;-91
2021/12/22 06:23:04;;;;;;;34.27;16.23;;;;;;;-5.36;78.00;101608.55;1442229;90;21354;-87
2021/12/22 06:25:31;;;;;;;30.10;16.02;;;;;;;-5.40;77.81;101612.89;1442843;90;21413;-90
2021/12/22 06:27:58;;;;;;;29.80;16.57;;;;;;;-5.40;78.07;101618.50;1441701;90;21435;-94
2021/12/22 06:30:25;;;;;;;29.00;16.30;;;;;;;-5.45;77.98;101623.70;1445429;90;21582;-91
2021/12/22 06:32:52;;;;;;;33.73;17.30;;;;;;;-5.50;78.19;101619.86;1439478;89;23365;-90
2021/12/22 06:35:20;;;;;;;35.38;16.77;;;;;;;-5.51;78.35;101622.48;1420048;90;21643;-89
2021/12/22 06:37:48;;;;;;;31.25;16.37;;;;;;;-5.54;78.24;101622.06;1419148;90;23365;-90
2021/12/22 06:40:17;;;;;;;40.08;17.25;;;;;;;-5.54;78.03;101628.52;1436651;90;21497;-90
2021/12/22 06:42:44;;;;;;;37.08;17.30;;;;;;;-5.49;78.06;101617.72;1444286;90;21414;-90
2021/12/22 06:45:14;;;;;;;29.82;16.60;;;;;;;-5.47;77.78;101618.57;1440223;90;21930;-90
2021/12/22 06:47:42;;;;;;;33.75;16.82;;;;;;;-5.39;77.62;101618.91;1437492;90;21421;-91
2021/12/22 06:50:10;;;;;;;30.43;14.90;;;;;;;-5.34;77.65;101623.58;1430999;89;21621;-91
2021/12/22 06:52:37;;;;;;;32.38;17.87;;;;;;;-5.33;77.43;101622.70;1438338;90;21569;-90
2021/12/22 06:55:05;;;;;;;42.65;22.13;;;;;;;-5.35;77.18;101622.73;1436973;90;21554;-90
2021/12/22 06:57:33;;;;;;;36.48;19.73;;;;;;;-5.35;77.06;101629.59;1441187;90;21584;-91
2021/12/22 07:00:03;;;;;;;30.30;16.80;;;;;;;-5.35;76.84;101626.61;1437834;89;21399;-91
2021/12/22 07:02:35;;;;;;;48.45;23.30;;;;;;;-5.34;76.87;101631.33;1442690;90;22456;-90
2021/12/22 07:05:00;;;;;;;45.20;22.67;;;;;;;-5.35;76.72;101630.89;1440337;89;21496;-91
2021/12/22 07:07:27;;;;;;;48.70;22.82;;;;;;;-5.34;76.71;101632.61;1440788;90;21393;-89
2021/12/22 07:09:54;;;;;;;77.47;35.25;;;;;;;-5.31;76.87;101639.03;1417604;90;21422;-92
2021/12/22 07:12:21;;;;;;;93.25;38.35;;;;;;;-5.27;76.91;101635.53;1427930;90;21482;-93
2021/12/22 07:14:49;;;;;;;108.72;52.90;;;;;;;-5.24;77.02;101646.70;1423509;90;21423;-93
2021/12/22 07:17:16;;;;;;;137.80;58.48;;;;;;;-5.18;76.87;101640.58;1442482;90;21415;-93
2021/12/22 07:19:43;;;;;;;116.22;56.75;;;;;;;-5.13;76.81;101640.09;1438421;90;21559;-93
2021/12/22 07:22:12;;;;;;;71.17;37.58;;;;;;;-5.08;76.93;101637.03;1415792;90;21497;-93
2021/12/22 07:24:39;;;;;;;66.42;36.10;;;;;;;-5.03;76.92;101636.55;1416154;92;21569;-93
2021/12/22 07:27:06;;;;;;;62.80;32.30;;;;;;;-4.99;76.74;101642.08;1439333;89;21583;-92
2021/12/22 07:29:33;;;;;;;58.20;27.90;;;;;;;-4.96;76.66;101639.05;1436949;90;22588;-93
2021/12/22 07:32:00;;;;;;;52.50;24.10;;;;;;;-4.89;76.55;101641.95;1446698;88;23132;-92
2021/12/22 07:34:38;;;;;;;49.18;24.40;;;;;;;-4.85;76.53;101639.33;1454682;89;22453;-93
2021/12/22 07:37:29;;;;;;;47.67;23.95;;;;;;;-4.78;76.69;101631.05;1437125;89;21348;-92
2021/12/22 07:39:56;;;;;;;54.08;29.67;;;;;;;-4.69;76.72;101630.95;1458790;89;21355;-89
2021/12/22 07:42:23;;;;;;;54.58;27.00;;;;;;;-4.57;76.99;101626.04;1463838;89;21457;-88
2021/12/22 07:44:50;;;;;;;47.85;25.70;;;;;;;-4.44;76.93;101626.70;1466688;89;21821;-89
2021/12/22 07:47:18;;;;;;;52.35;25.95;;;;;;;-4.40;76.47;101619.30;1460192;89;21311;-89
2021/12/22 07:49:45;;;;;;;45.48;22.50;;;;;;;-4.38;76.41;101624.02;1448189;89;21355;-89
2021/12/22 07:52:12;;;;;;;52.10;23.00;;;;;;;-4.37;76.32;101627.04;1464394;89;22314;-89
2021/12/22 07:54:39;;;;;;;39.58;19.30;;;;;;;-4.39;76.35;101623.62;1468081;89;22241;-89
2021/12/22 07:57:07;;;;;;;30.57;17.35;;;;;;;-4.33;76.51;101623.52;1460033;89;21428;-90
2021/12/22 07:59:34;;;;;;;29.42;17.60;;;;;;;-4.28;76.45;101637.23;1465692;89;21377;-89
2021/12/22 08:02:02;;;;;;;31.30;16.50;;;;;;;-4.18;76.68;101640.07;1469354;89;21428;-90
2021/12/22 08:04:29;;;;;;;25.97;14.15;;;;;;;-4.10;76.37;101644.69;1467506;89;22033;-88
2021/12/22 08:06:56;;;;;;;26.73;13.70;;;;;;;-4.06;75.91;101635.14;1458731;89;21561;-89
2021/12/22 08:09:26;;;;;;;30.77;15.03;;;;;;;-3.97;75.98;101644.48;1463009;89;21353;-96
2021/12/22 08:11:55;;;;;;;29.90;16.95;;;;;;;-3.88;75.84;101645.64;1474664;86;21337;-88
2021/12/22 08:14:24;;;;;;;30.57;16.37;;;;;;;-3.78;75.58;101649.77;1493189;87;22399;-88
2021/12/22 08:16:51;;;;;;;29.80;14.65;;;;;;;-3.63;75.94;101649.93;1459337;88;21441;-88
2021/12/22 08:19:18;;;;;;;34.92;17.42;;;;;;;-3.43;76.03;101652.16;1457879;89;22341;-88
2021/12/22 08:21:45;;;;;;;31.17;16.65;;;;;;;-3.26;75.86;101659.61;1445538;89;21551;-88
2021/12/22 08:24:14;;;;;;;36.35;17.95;;;;;;;-3.14;75.30;101659.81;1457152;89;21441;-88
2021/12/22 08:26:41;;;;;;;47.43;23.00;;;;;;;-2.96;75.39;101665.94;1454910;89;21418;-88
2021/12/22 08:29:14;;;;;;;45.52;22.70;;;;;;;-2.83;74.71;101667.37;1451601;89;21375;-91
2021/12/22 08:31:41;;;;;;;50.28;23.80;;;;;;;-2.77;74.26;101663.80;1455691;89;21279;-93
2021/12/22 08:34:10;;;;;;;50.33;24.92;;;;;;;-2.75;73.58;101665.48;1438298;89;23390;-90
2021/12/22 08:39:26;;;;;;;63.25;32.25;;;;;;;-2.61;72.94;101665.64;1442600;90;21456;-92
2021/12/22 08:41:53;;;;;;;54.30;29.72;;;;;;;-2.55;73.03;101671.53;1425390;90;21400;-93
2021/12/22 08:44:22;;;;;;;54.25;28.87;;;;;;;-2.51;72.28;101678.34;1409229;92;21467;-93
2021/12/22 08:46:51;;;;;;;52.78;27.50;;;;;;;-2.52;71.70;101675.80;1411132;92;21399;-89
2021/12/22 08:49:20;;;;;;;49.05;24.02;;;;;;;-2.48;70.97;101674.83;1413523;92;21526;-92
2021/12/22 08:51:49;;;;;;;50.63;27.17;;;;;;;-2.53;70.47;101679.30;1396056;92;21378;-92
2021/12/22 08:54:18;;;;;;;68.12;28.92;;;;;;;-2.53;71.14;101675.41;1406105;92;21467;-91
2021/12/22 08:56:46;;;;;;;57.83;26.62;;;;;;;-2.40;71.68;101679.41;1415084;91;22251;-91
2021/12/22 08:59:16;;;;;;;56.15;25.92;;;;;;;-2.26;71.46;101686.88;1408504;92;22324;-91
2021/12/22 09:01:44;;;;;;;57.50;27.67;;;;;;;-2.16;71.07;101692.70;1427278;92;22651;-92
2021/12/22 09:04:11;;;;;;;43.55;23.90;;;;;;;-2.09;70.05;101692.98;1406706;92;21370;-92
2021/12/22 09:06:39;;;;;;;44.05;21.65;;;;;;;-2.03;69.33;101690.24;1419106;92;21282;-91
2021/12/22 09:09:07;;;;;;;42.67;20.32;;;;;;;-1.99;69.19;101691.02;1414808;92;21451;-92
2021/12/22 09:11:36;;;;;;;50.08;22.32;;;;;;;-1.94;68.09;101686.12;1395667;92;21503;-87
2021/12/22 09:14:05;;;;;;;36.90;20.75;;;;;;;-1.88;68.47;101693.75;1398788;92;21429;-87
2021/12/22 09:16:34;;;;;;;34.45;18.92;;;;;;;-1.79;68.23;101685.34;1391854;92;21602;-88
2021/12/22 09:19:04;;;;;;;28.17;13.70;;;;;;;-1.71;65.92;101682.11;1416188;92;23255;-88
2021/12/22 09:21:32;;;;;;;32.95;16.12;;;;;;;-1.65;66.05;101680.66;1408825;92;21466;-88
2021/12/22 09:23:59;;;;;;;25.25;13.90;;;;;;;-1.58;65.97;101679.62;1414997;92;21348;-88
2021/12/22 09:26:26;;;;;;;25.60;11.80;;;;;;;-1.54;64.94;101672.16;1416964;92;21363;-87
2021/12/22 09:28:57;;;;;;;25.00;10.55;;;;;;;-1.43;65.83;101684.86;1394501;92;21436;-87
2021/12/22 09:31:25;;;;;;;19.90;9.15;;;;;;;-1.31;64.94;101682.38;1415430;92;21319;-87
2021/12/22 09:33:54;;;;;;;18.12;9.05;;;;;;;-1.19;64.22;101672.50;1407235;92;21481;-86
2021/12/22 09:36:22;;;;;;;25.05;9.88;;;;;;;-1.15;60.93;101678.48;1407123;92;21504;-87
2021/12/22 09:38:49;;;;;;;21.85;9.95;;;;;;;-1.02;63.83;101680.28;1417881;92;22258;-86
2021/12/22 09:41:16;;;;;;;20.82;10.60;;;;;;;-0.89;63.51;101680.77;1412096;92;21290;-86
2021/12/22 09:43:44;;;;;;;20.70;9.73;;;;;;;-0.78;62.69;101680.87;1412346;92;21394;-87
2021/12/22 09:46:16;;;;;;;15.67;8.10;;;;;;;-0.36;61.32;101675.75;1425125;89;21464;-87
2021/12/22 09:48:51;;;;;;;16.47;8.07;;;;;;;0.38;59.19;101672.48;1358795;91;21347;-87
2021/12/22 09:53:54;;;;;;;11.13;6.80;;;;;;;1.84;55.30;101667.08;1450387;90;21677;-87
2021/12/22 09:56:27;;;;;;;13.83;7.83;;;;;;;2.28;55.66;101667.05;1427139;89;21763;-86
2021/12/22 09:58:55;;;;;;;12.20;7.00;;;;;;;2.67;54.49;101669.71;1435995;90;22668;-87
2021/12/22 10:01:25;;;;;;;10.33;6.63;;;;;;;2.93;54.05;101667.73;1435359;90;22099;-87
2021/12/22 10:03:55;;;;;;;12.57;7.23;;;;;;;3.12;52.11;101664.68;1433548;90;21434;-88
2021/12/22 10:06:22;;;;;;;13.20;6.23;;;;;;;3.28;50.00;101659.61;1434459;89;21538;-87
2021/12/22 10:08:57;;;;;;;12.43;7.27;;;;;;;3.70;50.16;101665.05;1429858;89;21387;-87
2021/12/22 10:11:25;;;;;;;13.03;6.80;;;;;;;3.63;49.34;101666.75;1435605;89;21421;-87
2021/12/22 10:13:54;;;;;;;9.60;6.23;;;;;;;3.86;50.70;101661.25;1431237;90;21364;-86
2021/12/22 10:16:26;;;;;;;11.77;7.70;;;;;;;4.05;48.03;101667.27;1431892;89;21390;-86
2021/12/22 10:19:11;;;;;;;12.53;7.37;;;;;;;4.28;49.81;101660.04;1426674;90;21442;-86
2021/12/22 10:22:03;;;;;;;8.67;5.97;;;;;;;4.38;45.84;101659.13;1426113;90;21445;-86
2021/12/22 10:24:38;;;;;;;12.50;6.30;;;;;;;4.63;46.56;101655.64;1421917;90;21458;-86
2021/12/22 10:27:12;;;;;;;10.80;6.20;;;;;;;4.66;44.81;101652.86;1441892;90;21538;-86
2021/12/22 10:29:39;;;;;;;9.87;5.83;;;;;;;4.29;46.42;101649.50;1442089;90;21309;-85
2021/12/22 10:32:11;;;;;;;11.43;7.73;;;;;;;4.13;47.04;101646.41;1437514;90;21449;-86
2021/12/22 10:35:05;;;;;;;15.43;7.67;;;;;;;3.92;48.45;101651.78;1419320;90;21626;-85
2021/12/22 10:37:37;;;;;;;15.57;9.00;;;;;;;3.56;47.41;101655.22;1440464;90;21471;-87
2021/12/22 10:40:29;;;;;;;11.30;7.13;;;;;;;3.13;49.65;101648.52;1433293;90;21374;-86
2021/12/22 10:42:59;;;;;;;12.47;6.53;;;;;;;2.52;47.38;101648.17;1430520;90;22004;-86
2021/12/22 10:45:29;;;;;;;10.73;6.80;;;;;;;2.21;48.89;101614.20;1422700;92;21431;-85
2021/12/22 10:50:57;;;;;;;10.80;6.13;;;;;;;2.69;48.89;101643.05;1444863;90;21463;-84
2021/12/22 10:53:26;;;;;;;9.90;5.87;;;;;;;3.15;49.10;101647.53;1425990;90;21371;-84
2021/12/22 10:55:57;;;;;;;7.33;4.97;;;;;;;3.45;48.85;101644.41;1420774;91;21422;-83
2021/12/22 10:58:28;;;;;;;;;;;;;;;3.76;48.92;101645.58;1429222;88;21514;-84
2021/12/22 11:01:17;;;;;;;19.10;5.97;;;;;;;3.61;43.77;101644.55;1440601;89;20918;-84
2021/12/22 11:03:52;;;;;;;15.53;5.30;;;;;;;3.52;43.98;101645.83;1440945;90;23628;-85
2021/12/22 11:06:28;;;;;;;10.67;5.80;;;;;;;3.46;43.93;101644.81;1423338;91;21523;-84
2021/12/22 11:09:13;;;;;;;11.63;5.87;;;;;;;3.90;47.54;101635.75;1426034;92;22672;-84
2021/12/22 11:11:51;;;;;;;8.00;5.17;;;;;;;3.99;46.07;101630.89;1424877;88;21414;-84
2021/12/22 11:14:23;;;;;;;11.03;5.93;;;;;;;4.02;42.80;101625.50;1436191;90;23432;-84
2021/12/22 11:17:01;;;;;;;10.33;6.90;;;;;;;4.06;45.88;101628.38;1440753;90;22339;-84
2021/12/22 11:19:57;;;;;;;8.33;4.87;;;;;;;4.22;45.60;101627.59;1421973;91;21430;-84
2021/12/22 11:22:51;;;;;;;8.90;5.20;;;;;;;4.55;45.53;101628.12;1427208;88;21957;-86
2021/12/22 11:25:12;;;;;;;8.57;6.10;;;;;;;4.41;43.10;101627.05;1408879;90;21564;-85
2021/12/22 11:27:40;;;;;;;7.00;5.57;;;;;;;4.36;44.38;101626.90;1431460;92;22214;-86
2021/12/22 11:30:08;;;;;;;9.87;6.03;;;;;;;4.71;44.90;101621.98;1434110;88;21566;-86
2021/12/22 11:32:35;;;;;;;11.53;6.27;;;;;;;4.87;43.54;101623.34;1438343;90;21639;-86
2021/12/22 11:35:09;;;;;;;9.73;5.60;;;;;;;5.02;43.32;101615.58;1428940;89;21672;-85
2021/12/22 11:37:37;;;;;;;10.13;6.20;;;;;;;4.58;40.92;101614.86;1450180;89;21427;-85
2021/12/22 11:40:11;;;;;;;7.00;5.57;;;;;;;4.23;43.67;101618.80;1454277;89;22180;-86
2021/12/22 11:42:39;;;;;;;13.27;6.53;;;;;;;4.30;44.69;101615.80;1445911;89;21493;-85
2021/12/22 11:45:21;;;;;;;6.93;4.40;;;;;;;4.61;42.94;101616.00;1444901;88;21330;-85